<?xml version="1.0" encoding="UTF-8" standalone="no" ?>
<gpx xmlns="http://www.topografix.com/GPX/1/1" xmlns:xsi="http://www.w3.org/2001/XMLSchema-instance" xsi:schemaLocation="http://www.topografix.com/GPX/1/1 http://www.topografix.com/GPX/1/1/gpx.xsd" version="1.1" creator="VisuGPX - https://www.visugpx.com">
  <metadata>
    <name>La source de Fayolles</name>
  </metadata>
  <wpt lat="46.10688" lon="4.61209">
    <ele>307</ele>
    <name><![CDATA[Parking Source de Fayolles]]></name>
  </wpt>
  <wpt lat="46.10638" lon="4.61368">
    <ele>335</ele>
    <name><![CDATA[Source du Beaujolais]]></name>
  </wpt>
  <wpt lat="46.10455" lon="4.61621">
    <ele>387</ele>
    <name><![CDATA[Embranchement voie lente ou voie rapide]]></name>
  </wpt>
  <wpt lat="46.10035" lon="4.62288">
    <ele>570</ele>
    <name><![CDATA[Brosse-Sabot, bifurcation]]></name>
  </wpt>
  <wpt lat="46.10371" lon="4.62303">
    <ele>522</ele>
    <name><![CDATA[Cote 528, en face puis à  droite]]></name>
  </wpt>
  <wpt lat="46.10914" lon="4.62362">
    <ele>414</ele>
    <name><![CDATA[Plateau de Saburin, virer à gauche]]></name>
  </wpt>
  <wpt lat="46.10689" lon="4.6122">
    <ele>308</ele>
    <name><![CDATA[Parking source de Fayolles]]></name>
  </wpt>
  <trk>
    <name><![CDATA[La source de Fayolles]]></name>
    <trkseg>
      <trkpt lat="46.10688" lon="4.61209">
        <ele>307</ele>
        <time>2016-04-09T11:29:21+02:00</time>
      </trkpt>
      <trkpt lat="46.10668" lon="4.61256">
        <ele>313</ele>
        <time>2016-04-09T11:30:45+02:00</time>
      </trkpt>
      <trkpt lat="46.1066" lon="4.61286">
        <ele>318</ele>
        <time>2016-04-09T11:31:14+02:00</time>
      </trkpt>
      <trkpt lat="46.10647" lon="4.61327">
        <ele>326</ele>
      </trkpt>
      <trkpt lat="46.10638" lon="4.61368">
        <ele>335</ele>
        <time>2016-04-09T11:33:12+02:00</time>
      </trkpt>
      <trkpt lat="46.10593" lon="4.61447">
        <ele>351</ele>
        <time>2016-04-09T11:37:23+02:00</time>
      </trkpt>
      <trkpt lat="46.10574" lon="4.61492">
        <ele>358</ele>
        <time>2016-04-09T11:37:47+02:00</time>
      </trkpt>
      <trkpt lat="46.10534" lon="4.61559">
        <ele>372</ele>
      </trkpt>
      <trkpt lat="46.1049" lon="4.61604">
        <ele>379</ele>
      </trkpt>
      <trkpt lat="46.10455" lon="4.61621">
        <ele>387</ele>
        <time>2016-04-09T11:41:45+02:00</time>
      </trkpt>
      <trkpt lat="46.10416" lon="4.61659">
        <ele>393</ele>
      </trkpt>
      <trkpt lat="46.10386" lon="4.61739">
        <ele>413</ele>
      </trkpt>
      <trkpt lat="46.10377" lon="4.61799">
        <ele>423</ele>
      </trkpt>
      <trkpt lat="46.10356" lon="4.61854">
        <ele>429</ele>
      </trkpt>
      <trkpt lat="46.10323" lon="4.61913">
        <ele>439</ele>
        <time>2016-04-09T11:49:41+02:00</time>
      </trkpt>
      <trkpt lat="46.10281" lon="4.61962">
        <ele>461</ele>
        <time>2016-04-09T11:51:18+02:00</time>
      </trkpt>
      <trkpt lat="46.10252" lon="4.61996">
        <ele>471</ele>
        <time>2016-04-09T11:52:36+02:00</time>
      </trkpt>
      <trkpt lat="46.10219" lon="4.62045">
        <ele>492</ele>
        <time>2016-04-09T11:53:58+02:00</time>
      </trkpt>
      <trkpt lat="46.10196" lon="4.62078">
        <ele>505</ele>
        <time>2016-04-09T11:58:16+02:00</time>
      </trkpt>
      <trkpt lat="46.10174" lon="4.6211">
        <ele>518</ele>
        <time>2016-04-09T11:59:00+02:00</time>
      </trkpt>
      <trkpt lat="46.10155" lon="4.62138">
        <ele>529</ele>
        <time>2016-04-09T12:00:01+02:00</time>
      </trkpt>
      <trkpt lat="46.10133" lon="4.62164">
        <ele>540</ele>
        <time>2016-04-09T12:01:59+02:00</time>
      </trkpt>
      <trkpt lat="46.10118" lon="4.62194">
        <ele>549</ele>
        <time>2016-04-09T12:02:38+02:00</time>
      </trkpt>
      <trkpt lat="46.10095" lon="4.62213">
        <ele>558</ele>
        <time>2016-04-09T12:03:24+02:00</time>
      </trkpt>
      <trkpt lat="46.1008" lon="4.6223">
        <ele>564</ele>
        <time>2016-04-09T12:03:57+02:00</time>
      </trkpt>
      <trkpt lat="46.10065" lon="4.62256">
        <ele>567</ele>
        <time>2016-04-09T12:04:33+02:00</time>
      </trkpt>
      <trkpt lat="46.10075" lon="4.62245">
        <ele>566</ele>
        <time>2016-04-09T12:05:07+02:00</time>
      </trkpt>
      <trkpt lat="46.10057" lon="4.62264">
        <ele>568</ele>
        <time>2016-04-09T12:05:51+02:00</time>
      </trkpt>
      <trkpt lat="46.10039" lon="4.62284">
        <ele>569</ele>
        <time>2016-04-09T12:08:05+02:00</time>
      </trkpt>
      <trkpt lat="46.10007" lon="4.62237">
        <ele>576</ele>
        <time>2016-04-09T12:12:03+02:00</time>
      </trkpt>
      <trkpt lat="46.09995" lon="4.62208">
        <ele>578</ele>
        <time>2016-04-09T12:12:21+02:00</time>
      </trkpt>
      <trkpt lat="46.09987" lon="4.62184">
        <ele>579</ele>
        <time>2016-04-09T12:12:42+02:00</time>
      </trkpt>
      <trkpt lat="46.09976" lon="4.62158">
        <ele>580</ele>
        <time>2016-04-09T12:13:00+02:00</time>
      </trkpt>
      <trkpt lat="46.09955" lon="4.62136">
        <ele>581</ele>
        <time>2016-04-09T12:13:19+02:00</time>
      </trkpt>
      <trkpt lat="46.09937" lon="4.62115">
        <ele>582</ele>
        <time>2016-04-09T12:15:02+02:00</time>
      </trkpt>
      <trkpt lat="46.09919" lon="4.62094">
        <ele>585</ele>
        <time>2016-04-09T12:15:36+02:00</time>
      </trkpt>
      <trkpt lat="46.09933" lon="4.62118">
        <ele>582</ele>
        <time>2016-04-09T12:18:08+02:00</time>
      </trkpt>
      <trkpt lat="46.09956" lon="4.62139">
        <ele>580</ele>
        <time>2016-04-09T12:18:32+02:00</time>
      </trkpt>
      <trkpt lat="46.09976" lon="4.62157">
        <ele>580</ele>
        <time>2016-04-09T12:18:58+02:00</time>
      </trkpt>
      <trkpt lat="46.09988" lon="4.6218">
        <ele>579</ele>
        <time>2016-04-09T12:19:20+02:00</time>
      </trkpt>
      <trkpt lat="46.09997" lon="4.6221">
        <ele>578</ele>
        <time>2016-04-09T12:19:41+02:00</time>
      </trkpt>
      <trkpt lat="46.10007" lon="4.62239">
        <ele>575</ele>
        <time>2016-04-09T12:20:05+02:00</time>
      </trkpt>
      <trkpt lat="46.10022" lon="4.62265">
        <ele>572</ele>
        <time>2016-04-09T12:20:28+02:00</time>
      </trkpt>
      <trkpt lat="46.10035" lon="4.62288">
        <ele>570</ele>
        <time>2016-04-09T12:20:59+02:00</time>
      </trkpt>
      <trkpt lat="46.10044" lon="4.62296">
        <ele>568</ele>
      </trkpt>
      <trkpt lat="46.10051" lon="4.62315">
        <ele>567</ele>
        <time>2016-04-09T12:21:32+02:00</time>
      </trkpt>
      <trkpt lat="46.1006" lon="4.62325">
        <ele>566</ele>
      </trkpt>
      <trkpt lat="46.10071" lon="4.6233">
        <ele>566</ele>
        <time>2016-04-09T12:21:49+02:00</time>
      </trkpt>
      <trkpt lat="46.10082" lon="4.6233">
        <ele>565</ele>
      </trkpt>
      <trkpt lat="46.10092" lon="4.62341">
        <ele>562</ele>
        <time>2016-04-09T12:22:07+02:00</time>
      </trkpt>
      <trkpt lat="46.10103" lon="4.62343">
        <ele>559</ele>
      </trkpt>
      <trkpt lat="46.10114" lon="4.62351">
        <ele>556</ele>
        <time>2016-04-09T12:22:28+02:00</time>
      </trkpt>
      <trkpt lat="46.10127" lon="4.62351">
        <ele>553</ele>
      </trkpt>
      <trkpt lat="46.10139" lon="4.62351">
        <ele>550</ele>
        <time>2016-04-09T12:22:45+02:00</time>
      </trkpt>
      <trkpt lat="46.1016" lon="4.62349">
        <ele>546</ele>
        <time>2016-04-09T12:23:08+02:00</time>
      </trkpt>
      <trkpt lat="46.10183" lon="4.6235">
        <ele>542</ele>
        <time>2016-04-09T12:23:27+02:00</time>
      </trkpt>
      <trkpt lat="46.10207" lon="4.62347">
        <ele>540</ele>
        <time>2016-04-09T12:24:06+02:00</time>
      </trkpt>
      <trkpt lat="46.10229" lon="4.62345">
        <ele>537</ele>
        <time>2016-04-09T12:24:20+02:00</time>
      </trkpt>
      <trkpt lat="46.10251" lon="4.62337">
        <ele>535</ele>
        <time>2016-04-09T12:24:36+02:00</time>
      </trkpt>
      <trkpt lat="46.10275" lon="4.62333">
        <ele>533</ele>
        <time>2016-04-09T12:24:55+02:00</time>
      </trkpt>
      <trkpt lat="46.10297" lon="4.62327">
        <ele>532</ele>
        <time>2016-04-09T12:25:17+02:00</time>
      </trkpt>
      <trkpt lat="46.10321" lon="4.62321">
        <ele>530</ele>
        <time>2016-04-09T12:25:34+02:00</time>
      </trkpt>
      <trkpt lat="46.10344" lon="4.62311">
        <ele>526</ele>
        <time>2016-04-09T12:25:54+02:00</time>
      </trkpt>
      <trkpt lat="46.10371" lon="4.62303">
        <ele>522</ele>
        <time>2016-04-09T12:26:17+02:00</time>
      </trkpt>
      <trkpt lat="46.104" lon="4.62307">
        <ele>518</ele>
        <time>2016-04-09T12:27:44+02:00</time>
      </trkpt>
      <trkpt lat="46.1042" lon="4.62301">
        <ele>515</ele>
        <time>2016-04-09T12:30:23+02:00</time>
      </trkpt>
      <trkpt lat="46.1044" lon="4.62308">
        <ele>512</ele>
        <time>2016-04-09T12:31:05+02:00</time>
      </trkpt>
      <trkpt lat="46.10455" lon="4.62312">
        <ele>510</ele>
        <time>2016-04-09T12:31:26+02:00</time>
      </trkpt>
      <trkpt lat="46.10463" lon="4.62338">
        <ele>509</ele>
        <time>2016-04-09T12:31:46+02:00</time>
      </trkpt>
      <trkpt lat="46.10516" lon="4.62379">
        <ele>496</ele>
        <time>2016-04-09T12:32:06+02:00</time>
      </trkpt>
      <trkpt lat="46.10512" lon="4.6242">
        <ele>491</ele>
        <time>2016-04-09T12:33:08+02:00</time>
      </trkpt>
      <trkpt lat="46.10526" lon="4.62445">
        <ele>482</ele>
        <time>2016-04-09T12:33:44+02:00</time>
      </trkpt>
      <trkpt lat="46.10548" lon="4.62455">
        <ele>477</ele>
        <time>2016-04-09T12:34:05+02:00</time>
      </trkpt>
      <trkpt lat="46.10563" lon="4.6247">
        <ele>472</ele>
        <time>2016-04-09T12:34:20+02:00</time>
      </trkpt>
      <trkpt lat="46.10588" lon="4.62466">
        <ele>471</ele>
        <time>2016-04-09T12:34:36+02:00</time>
      </trkpt>
      <trkpt lat="46.10611" lon="4.6246">
        <ele>467</ele>
        <time>2016-04-09T12:34:52+02:00</time>
      </trkpt>
      <trkpt lat="46.10633" lon="4.62453">
        <ele>463</ele>
        <time>2016-04-09T12:35:13+02:00</time>
      </trkpt>
      <trkpt lat="46.10656" lon="4.62444">
        <ele>459</ele>
        <time>2016-04-09T12:35:34+02:00</time>
      </trkpt>
      <trkpt lat="46.10678" lon="4.62434">
        <ele>455</ele>
        <time>2016-04-09T12:35:54+02:00</time>
      </trkpt>
      <trkpt lat="46.10697" lon="4.62414">
        <ele>452</ele>
        <time>2016-04-09T12:36:13+02:00</time>
      </trkpt>
      <trkpt lat="46.10717" lon="4.62399">
        <ele>447</ele>
        <time>2016-04-09T12:36:32+02:00</time>
      </trkpt>
      <trkpt lat="46.10738" lon="4.62382">
        <ele>442</ele>
        <time>2016-04-09T12:36:55+02:00</time>
      </trkpt>
      <trkpt lat="46.10758" lon="4.62363">
        <ele>438</ele>
        <time>2016-04-09T12:37:15+02:00</time>
      </trkpt>
      <trkpt lat="46.10781" lon="4.62361">
        <ele>435</ele>
        <time>2016-04-09T12:37:47+02:00</time>
      </trkpt>
      <trkpt lat="46.10798" lon="4.6234">
        <ele>433</ele>
        <time>2016-04-09T12:38:09+02:00</time>
      </trkpt>
      <trkpt lat="46.10819" lon="4.62324">
        <ele>429</ele>
        <time>2016-04-09T12:38:36+02:00</time>
      </trkpt>
      <trkpt lat="46.10841" lon="4.62313">
        <ele>424</ele>
        <time>2016-04-09T12:40:39+02:00</time>
      </trkpt>
      <trkpt lat="46.10863" lon="4.62304">
        <ele>419</ele>
        <time>2016-04-09T12:40:58+02:00</time>
      </trkpt>
      <trkpt lat="46.10879" lon="4.6233">
        <ele>418</ele>
        <time>2016-04-09T12:41:16+02:00</time>
      </trkpt>
      <trkpt lat="46.10891" lon="4.62359">
        <ele>417</ele>
        <time>2016-04-09T12:41:31+02:00</time>
      </trkpt>
      <trkpt lat="46.10914" lon="4.62362">
        <ele>414</ele>
        <time>2016-04-09T12:41:52+02:00</time>
      </trkpt>
      <trkpt lat="46.10913" lon="4.62329">
        <ele>411</ele>
        <time>2016-04-09T12:43:12+02:00</time>
      </trkpt>
      <trkpt lat="46.109" lon="4.623">
        <ele>410</ele>
        <time>2016-04-09T12:43:28+02:00</time>
      </trkpt>
      <trkpt lat="46.10885" lon="4.62275">
        <ele>411</ele>
        <time>2016-04-09T12:43:43+02:00</time>
      </trkpt>
      <trkpt lat="46.1087" lon="4.62247">
        <ele>411</ele>
        <time>2016-04-09T12:43:58+02:00</time>
      </trkpt>
      <trkpt lat="46.10861" lon="4.62217">
        <ele>410</ele>
        <time>2016-04-09T12:44:15+02:00</time>
      </trkpt>
      <trkpt lat="46.10848" lon="4.6219">
        <ele>410</ele>
        <time>2016-04-09T12:44:30+02:00</time>
      </trkpt>
      <trkpt lat="46.10837" lon="4.62161">
        <ele>411</ele>
        <time>2016-04-09T12:44:45+02:00</time>
      </trkpt>
      <trkpt lat="46.10829" lon="4.62131">
        <ele>413</ele>
        <time>2016-04-09T12:45:11+02:00</time>
      </trkpt>
      <trkpt lat="46.10821" lon="4.621">
        <ele>414</ele>
        <time>2016-04-09T12:45:27+02:00</time>
      </trkpt>
      <trkpt lat="46.10816" lon="4.62066">
        <ele>417</ele>
        <time>2016-04-09T12:45:47+02:00</time>
      </trkpt>
      <trkpt lat="46.10819" lon="4.62033">
        <ele>418</ele>
        <time>2016-04-09T12:46:10+02:00</time>
      </trkpt>
      <trkpt lat="46.10829" lon="4.62003">
        <ele>415</ele>
        <time>2016-04-09T12:46:29+02:00</time>
      </trkpt>
      <trkpt lat="46.10838" lon="4.61972">
        <ele>413</ele>
        <time>2016-04-09T12:46:48+02:00</time>
      </trkpt>
      <trkpt lat="46.10848" lon="4.61943">
        <ele>411</ele>
        <time>2016-04-09T12:47:11+02:00</time>
      </trkpt>
      <trkpt lat="46.10863" lon="4.61919">
        <ele>406</ele>
        <time>2016-04-09T12:48:26+02:00</time>
      </trkpt>
      <trkpt lat="46.10877" lon="4.61893">
        <ele>399</ele>
        <time>2016-04-09T12:48:45+02:00</time>
      </trkpt>
      <trkpt lat="46.10871" lon="4.6186">
        <ele>399</ele>
        <time>2016-04-09T12:49:37+02:00</time>
      </trkpt>
      <trkpt lat="46.10872" lon="4.61827">
        <ele>396</ele>
        <time>2016-04-09T12:49:56+02:00</time>
      </trkpt>
      <trkpt lat="46.10869" lon="4.61795">
        <ele>393</ele>
        <time>2016-04-09T12:50:16+02:00</time>
      </trkpt>
      <trkpt lat="46.10863" lon="4.61763">
        <ele>390</ele>
        <time>2016-04-09T12:50:35+02:00</time>
      </trkpt>
      <trkpt lat="46.10852" lon="4.61735">
        <ele>390</ele>
        <time>2016-04-09T12:51:32+02:00</time>
      </trkpt>
      <trkpt lat="46.10847" lon="4.617">
        <ele>386</ele>
        <time>2016-04-09T12:51:49+02:00</time>
      </trkpt>
      <trkpt lat="46.1084" lon="4.61667">
        <ele>383</ele>
        <time>2016-04-09T12:52:05+02:00</time>
      </trkpt>
      <trkpt lat="46.10861" lon="4.61679">
        <ele>377</ele>
        <time>2016-04-09T12:52:41+02:00</time>
      </trkpt>
      <trkpt lat="46.10878" lon="4.61701">
        <ele>375</ele>
        <time>2016-04-09T12:52:56+02:00</time>
      </trkpt>
      <trkpt lat="46.10894" lon="4.61724">
        <ele>373</ele>
        <time>2016-04-09T12:53:11+02:00</time>
      </trkpt>
      <trkpt lat="46.10912" lon="4.61747">
        <ele>370</ele>
        <time>2016-04-09T12:53:27+02:00</time>
      </trkpt>
      <trkpt lat="46.10931" lon="4.61768">
        <ele>366</ele>
        <time>2016-04-09T12:53:47+02:00</time>
      </trkpt>
      <trkpt lat="46.10947" lon="4.61791">
        <ele>362</ele>
        <time>2016-04-09T12:54:25+02:00</time>
      </trkpt>
      <trkpt lat="46.10962" lon="4.61815">
        <ele>358</ele>
        <time>2016-04-09T12:54:44+02:00</time>
      </trkpt>
      <trkpt lat="46.10985" lon="4.61817">
        <ele>349</ele>
        <time>2016-04-09T12:55:10+02:00</time>
      </trkpt>
      <trkpt lat="46.10987" lon="4.61784">
        <ele>345</ele>
        <time>2016-04-09T12:56:07+02:00</time>
      </trkpt>
      <trkpt lat="46.10981" lon="4.61752">
        <ele>344</ele>
        <time>2016-04-09T12:56:24+02:00</time>
      </trkpt>
      <trkpt lat="46.10981" lon="4.61718">
        <ele>339</ele>
        <time>2016-04-09T12:56:41+02:00</time>
      </trkpt>
      <trkpt lat="46.1098" lon="4.61685">
        <ele>334</ele>
        <time>2016-04-09T12:56:57+02:00</time>
      </trkpt>
      <trkpt lat="46.10976" lon="4.61651">
        <ele>331</ele>
        <time>2016-04-09T12:57:14+02:00</time>
      </trkpt>
      <trkpt lat="46.10968" lon="4.6162">
        <ele>328</ele>
        <time>2016-04-09T12:57:30+02:00</time>
      </trkpt>
      <trkpt lat="46.10954" lon="4.61594">
        <ele>328</ele>
        <time>2016-04-09T12:57:44+02:00</time>
      </trkpt>
      <trkpt lat="46.10939" lon="4.61567">
        <ele>328</ele>
        <time>2016-04-09T12:58:00+02:00</time>
      </trkpt>
      <trkpt lat="46.10932" lon="4.61536">
        <ele>324</ele>
        <time>2016-04-09T12:58:15+02:00</time>
      </trkpt>
      <trkpt lat="46.10923" lon="4.61504">
        <ele>319</ele>
        <time>2016-04-09T12:58:32+02:00</time>
      </trkpt>
      <trkpt lat="46.10913" lon="4.61476">
        <ele>319</ele>
        <time>2016-04-09T12:58:54+02:00</time>
      </trkpt>
      <trkpt lat="46.10928" lon="4.61452">
        <ele>312</ele>
        <time>2016-04-09T12:59:21+02:00</time>
      </trkpt>
      <trkpt lat="46.10944" lon="4.61427">
        <ele>306</ele>
        <time>2016-04-09T12:59:50+02:00</time>
      </trkpt>
      <trkpt lat="46.10961" lon="4.61406">
        <ele>301</ele>
        <time>2016-04-09T13:00:07+02:00</time>
      </trkpt>
      <trkpt lat="46.10977" lon="4.61384">
        <ele>296</ele>
        <time>2016-04-09T13:00:29+02:00</time>
      </trkpt>
      <trkpt lat="46.10964" lon="4.61357">
        <ele>296</ele>
        <time>2016-04-09T13:00:43+02:00</time>
      </trkpt>
      <trkpt lat="46.10951" lon="4.61338">
        <ele>297</ele>
        <time>2016-04-09T13:01:10+02:00</time>
      </trkpt>
      <trkpt lat="46.10934" lon="4.61316">
        <ele>297</ele>
        <time>2016-04-09T13:02:26+02:00</time>
      </trkpt>
      <trkpt lat="46.10915" lon="4.61296">
        <ele>298</ele>
        <time>2016-04-09T13:02:48+02:00</time>
      </trkpt>
      <trkpt lat="46.10903" lon="4.61275">
        <ele>297</ele>
        <time>2016-04-09T13:04:04+02:00</time>
      </trkpt>
      <trkpt lat="46.10865" lon="4.6124">
        <ele>297</ele>
      </trkpt>
      <trkpt lat="46.10842" lon="4.61222">
        <ele>297</ele>
        <time>2016-04-09T13:04:25+02:00</time>
      </trkpt>
      <trkpt lat="46.10786" lon="4.612">
        <ele>299</ele>
      </trkpt>
      <trkpt lat="46.1074" lon="4.61201">
        <ele>303</ele>
      </trkpt>
      <trkpt lat="46.10696" lon="4.61202">
        <ele>306</ele>
      </trkpt>
      <trkpt lat="46.10689" lon="4.6122">
        <ele>308</ele>
        <time>2016-04-09T13:04:43+02:00</time>
      </trkpt>
    </trkseg>
  </trk>
</gpx>